sensor_id;sensor_type;location;lat;lon;timestamp;temperature;humidity
29281;DHT22;25048;49.590;11.026;2022-12-07T00:01:36;3.00;99.90
29281;DHT22;25048;49.590;11.026;2022-12-07T00:04:08;3.00;99.90
29281;DHT22;25048;49.590;11.026;2022-12-07T00:06:41;3.00;99.90
29281;DHT22;25048;49.590;11.026;2022-12-07T00:09:14;3.00;99.90
29281;DHT22;25048;49.590;11.026;2022-12-07T00:11:42;2.90;99.90
29281;DHT22;25048;49.590;11.026;2022-12-07T00:14:13;2.90;99.90
29281;DHT22;25048;49.590;11.026;2022-12-07T00:16:41;2.90;99.90
29281;DHT22;25048;49.590;11.026;2022-12-07T00:19:11;2.80;99.90
29281;DHT22;25048;49.590;11.026;2022-12-07T00:21:39;2.80;99.90
29281;DHT22;25048;49.590;11.026;2022-12-07T00:24:06;2.80;99.90
29281;DHT22;25048;49.590;11.026;2022-12-07T00:26:37;2.80;99.90
29281;DHT22;25048;49.590;11.026;2022-12-07T00:29:07;2.80;99.90
29281;DHT22;25048;49.590;11.026;2022-12-07T00:31:36;2.70;99.90
29281;DHT22;25048;49.590;11.026;2022-12-07T00:34:06;2.70;99.90
29281;DHT22;25048;49.590;11.026;2022-12-07T00:36:34;2.70;99.90
29281;DHT22;25048;49.590;11.026;2022-12-07T00:39:02;2.80;99.90
29281;DHT22;25048;49.590;11.026;2022-12-07T00:41:30;2.80;99.90
29281;DHT22;25048;49.590;11.026;2022-12-07T00:43:58;2.80;99.90
29281;DHT22;25048;49.590;11.026;2022-12-07T00:46:26;2.70;99.90
29281;DHT22;25048;49.590;11.026;2022-12-07T00:48:54;2.70;99.90
29281;DHT22;25048;49.590;11.026;2022-12-07T00:51:23;2.80;99.90
29281;DHT22;25048;49.590;11.026;2022-12-07T00:53:51;2.80;99.90
29281;DHT22;25048;49.590;11.026;2022-12-07T00:56:22;2.70;99.90
29281;DHT22;25048;49.590;11.026;2022-12-07T00:58:55;2.70;99.90
29281;DHT22;25048;49.590;11.026;2022-12-07T01:01:25;2.80;99.90
29281;DHT22;25048;49.590;11.026;2022-12-07T01:03:52;2.80;99.90
29281;DHT22;25048;49.590;11.026;2022-12-07T01:06:21;2.70;99.90
29281;DHT22;25048;49.590;11.026;2022-12-07T01:08:50;2.70;99.90
29281;DHT22;25048;49.590;11.026;2022-12-07T01:11:20;2.70;99.90
29281;DHT22;25048;49.590;11.026;2022-12-07T01:13:49;2.70;99.90
29281;DHT22;25048;49.590;11.026;2022-12-07T01:16:17;2.70;99.90
29281;DHT22;25048;49.590;11.026;2022-12-07T01:18:47;2.70;99.90
29281;DHT22;25048;49.590;11.026;2022-12-07T01:21:19;2.60;99.90
29281;DHT22;25048;49.590;11.026;2022-12-07T01:23:47;2.60;99.90
29281;DHT22;25048;49.590;11.026;2022-12-07T01:26:23;2.60;99.90
29281;DHT22;25048;49.590;11.026;2022-12-07T01:28:45;2.60;99.90
29281;DHT22;25048;49.590;11.026;2022-12-07T01:31:16;2.50;99.90
29281;DHT22;25048;49.590;11.026;2022-12-07T01:33:52;2.50;99.90
29281;DHT22;25048;49.590;11.026;2022-12-07T01:36:28;2.50;99.90
29281;DHT22;25048;49.590;11.026;2022-12-07T01:38:59;2.50;99.90
29281;DHT22;25048;49.590;11.026;2022-12-07T01:41:29;2.50;99.90
29281;DHT22;25048;49.590;11.026;2022-12-07T01:44:12;2.50;99.90
29281;DHT22;25048;49.590;11.026;2022-12-07T01:46:40;2.50;99.90
29281;DHT22;25048;49.590;11.026;2022-12-07T01:49:32;2.50;99.90
29281;DHT22;25048;49.590;11.026;2022-12-07T01:54:33;2.60;99.90
29281;DHT22;25048;49.590;11.026;2022-12-07T01:57:02;2.60;99.90
29281;DHT22;25048;49.590;11.026;2022-12-07T01:59:30;2.60;99.90
29281;DHT22;25048;49.590;11.026;2022-12-07T02:01:58;2.60;99.90
29281;DHT22;25048;49.590;11.026;2022-12-07T02:04:25;2.60;99.90
29281;DHT22;25048;49.590;11.026;2022-12-07T02:06:54;2.60;99.90
29281;DHT22;25048;49.590;11.026;2022-12-07T02:09:22;2.50;99.90
29281;DHT22;25048;49.590;11.026;2022-12-07T02:11:50;2.60;99.90
29281;DHT22;25048;49.590;11.026;2022-12-07T02:14:17;2.60;99.90
29281;DHT22;25048;49.590;11.026;2022-12-07T02:20:00;2.60;99.90
29281;DHT22;25048;49.590;11.026;2022-12-07T02:22:43;2.50;99.90
29281;DHT22;25048;49.590;11.026;2022-12-07T02:28:05;2.50;99.90
29281;DHT22;25048;49.590;11.026;2022-12-07T02:30:35;2.50;99.90
29281;DHT22;25048;49.590;11.026;2022-12-07T02:33:16;2.50;99.90
29281;DHT22;25048;49.590;11.026;2022-12-07T02:35:55;2.50;99.90
29281;DHT22;25048;49.590;11.026;2022-12-07T02:38:31;2.50;99.90
29281;DHT22;25048;49.590;11.026;2022-12-07T02:43:38;2.30;99.90
29281;DHT22;25048;49.590;11.026;2022-12-07T02:46:14;2.20;99.90
29281;DHT22;25048;49.590;11.026;2022-12-07T02:48:43;2.10;99.90
29281;DHT22;25048;49.590;11.026;2022-12-07T02:51:11;2.00;99.90
29281;DHT22;25048;49.590;11.026;2022-12-07T02:53:41;1.90;99.90
29281;DHT22;25048;49.590;11.026;2022-12-07T03:02:12;1.60;99.90
29281;DHT22;25048;49.590;11.026;2022-12-07T03:04:52;1.60;99.90
29281;DHT22;25048;49.590;11.026;2022-12-07T03:07:39;1.60;99.90
29281;DHT22;25048;49.590;11.026;2022-12-07T03:10:35;1.70;99.90
29281;DHT22;25048;49.590;11.026;2022-12-07T03:12:57;1.80;99.90
29281;DHT22;25048;49.590;11.026;2022-12-07T03:17:51;1.80;99.90
29281;DHT22;25048;49.590;11.026;2022-12-07T03:20:22;1.80;99.90
29281;DHT22;25048;49.590;11.026;2022-12-07T03:22:51;1.80;99.90
29281;DHT22;25048;49.590;11.026;2022-12-07T03:25:20;1.70;99.90
29281;DHT22;25048;49.590;11.026;2022-12-07T03:27:50;1.80;99.90
29281;DHT22;25048;49.590;11.026;2022-12-07T03:30:20;1.90;99.90
29281;DHT22;25048;49.590;11.026;2022-12-07T03:32:53;1.90;99.90
29281;DHT22;25048;49.590;11.026;2022-12-07T03:35:33;1.80;99.90
29281;DHT22;25048;49.590;11.026;2022-12-07T03:40:59;1.50;99.90
29281;DHT22;25048;49.590;11.026;2022-12-07T03:43:29;1.30;99.90
29281;DHT22;25048;49.590;11.026;2022-12-07T03:48:43;1.20;99.90
29281;DHT22;25048;49.590;11.026;2022-12-07T03:51:22;1.20;99.90
29281;DHT22;25048;49.590;11.026;2022-12-07T03:56:30;1.00;99.90
29281;DHT22;25048;49.590;11.026;2022-12-07T03:58:58;0.90;99.90
29281;DHT22;25048;49.590;11.026;2022-12-07T04:01:26;0.90;99.90
29281;DHT22;25048;49.590;11.026;2022-12-07T04:03:54;0.90;99.90
29281;DHT22;25048;49.590;11.026;2022-12-07T04:06:22;0.90;99.90
29281;DHT22;25048;49.590;11.026;2022-12-07T04:08:49;0.90;99.90
29281;DHT22;25048;49.590;11.026;2022-12-07T04:11:17;1.00;99.90
29281;DHT22;25048;49.590;11.026;2022-12-07T04:13:44;1.00;99.90
29281;DHT22;25048;49.590;11.026;2022-12-07T04:16:29;1.00;99.90
29281;DHT22;25048;49.590;11.026;2022-12-07T04:18:57;1.10;99.90
29281;DHT22;25048;49.590;11.026;2022-12-07T04:21:24;1.10;99.90
29281;DHT22;25048;49.590;11.026;2022-12-07T04:23:52;1.20;99.90
29281;DHT22;25048;49.590;11.026;2022-12-07T04:26:19;1.20;99.90
29281;DHT22;25048;49.590;11.026;2022-12-07T04:28:47;1.20;99.90
29281;DHT22;25048;49.590;11.026;2022-12-07T04:31:14;1.30;99.90
29281;DHT22;25048;49.590;11.026;2022-12-07T04:33:42;1.30;99.90
29281;DHT22;25048;49.590;11.026;2022-12-07T04:36:09;1.30;99.90
29281;DHT22;25048;49.590;11.026;2022-12-07T04:38:37;1.30;99.90
29281;DHT22;25048;49.590;11.026;2022-12-07T04:41:08;1.40;99.90
29281;DHT22;25048;49.590;11.026;2022-12-07T04:43:36;1.40;99.90
29281;DHT22;25048;49.590;11.026;2022-12-07T04:46:04;1.40;99.90
29281;DHT22;25048;49.590;11.026;2022-12-07T04:48:31;1.50;99.90
29281;DHT22;25048;49.590;11.026;2022-12-07T04:50:59;1.50;99.90
29281;DHT22;25048;49.590;11.026;2022-12-07T04:53:26;1.50;99.90
29281;DHT22;25048;49.590;11.026;2022-12-07T04:55:54;1.60;99.90
29281;DHT22;25048;49.590;11.026;2022-12-07T04:58:21;1.60;99.90
29281;DHT22;25048;49.590;11.026;2022-12-07T05:00:49;1.60;99.90
29281;DHT22;25048;49.590;11.026;2022-12-07T05:03:16;1.70;99.90
29281;DHT22;25048;49.590;11.026;2022-12-07T05:05:44;1.70;99.90
29281;DHT22;25048;49.590;11.026;2022-12-07T05:08:11;1.70;99.90
29281;DHT22;25048;49.590;11.026;2022-12-07T05:10:39;1.80;99.90
29281;DHT22;25048;49.590;11.026;2022-12-07T05:13:06;1.90;99.90
29281;DHT22;25048;49.590;11.026;2022-12-07T05:15:34;1.90;99.90
29281;DHT22;25048;49.590;11.026;2022-12-07T05:18:01;1.90;99.90
29281;DHT22;25048;49.590;11.026;2022-12-07T05:20:29;1.90;99.90
29281;DHT22;25048;49.590;11.026;2022-12-07T05:22:57;1.90;99.90
29281;DHT22;25048;49.590;11.026;2022-12-07T05:25:25;1.90;99.90
29281;DHT22;25048;49.590;11.026;2022-12-07T05:27:53;1.80;99.90
29281;DHT22;25048;49.590;11.026;2022-12-07T05:30:22;1.80;99.90
29281;DHT22;25048;49.590;11.026;2022-12-07T05:32:50;1.90;99.90
29281;DHT22;25048;49.590;11.026;2022-12-07T05:35:18;1.90;99.90
29281;DHT22;25048;49.590;11.026;2022-12-07T05:37:46;1.80;99.90
29281;DHT22;25048;49.590;11.026;2022-12-07T05:40:14;1.80;99.90
29281;DHT22;25048;49.590;11.026;2022-12-07T05:42:42;1.90;99.90
29281;DHT22;25048;49.590;11.026;2022-12-07T05:45:10;1.80;99.90
29281;DHT22;25048;49.590;11.026;2022-12-07T05:47:38;1.90;99.90
29281;DHT22;25048;49.590;11.026;2022-12-07T05:50:06;1.90;99.90
29281;DHT22;25048;49.590;11.026;2022-12-07T05:52:34;1.90;99.90
29281;DHT22;25048;49.590;11.026;2022-12-07T05:55:02;1.90;99.90
29281;DHT22;25048;49.590;11.026;2022-12-07T05:57:29;1.90;99.90
29281;DHT22;25048;49.590;11.026;2022-12-07T05:59:57;2.00;99.90
29281;DHT22;25048;49.590;11.026;2022-12-07T06:02:24;1.90;99.90
29281;DHT22;25048;49.590;11.026;2022-12-07T06:04:52;1.90;99.90
29281;DHT22;25048;49.590;11.026;2022-12-07T06:07:19;2.00;99.90
29281;DHT22;25048;49.590;11.026;2022-12-07T06:09:47;2.00;99.90
29281;DHT22;25048;49.590;11.026;2022-12-07T06:12:14;2.10;99.90
29281;DHT22;25048;49.590;11.026;2022-12-07T06:15:00;2.10;99.90
29281;DHT22;25048;49.590;11.026;2022-12-07T06:17:28;2.10;99.90
29281;DHT22;25048;49.590;11.026;2022-12-07T06:19:55;2.20;99.90
29281;DHT22;25048;49.590;11.026;2022-12-07T06:22:23;2.20;99.90
29281;DHT22;25048;49.590;11.026;2022-12-07T06:24:50;2.20;99.90
29281;DHT22;25048;49.590;11.026;2022-12-07T06:27:18;2.20;99.90
29281;DHT22;25048;49.590;11.026;2022-12-07T06:29:45;2.20;99.90
29281;DHT22;25048;49.590;11.026;2022-12-07T06:32:13;2.20;99.90
29281;DHT22;25048;49.590;11.026;2022-12-07T06:34:40;2.10;99.90
29281;DHT22;25048;49.590;11.026;2022-12-07T06:37:08;2.10;99.90
29281;DHT22;25048;49.590;11.026;2022-12-07T06:39:35;2.10;99.90
29281;DHT22;25048;49.590;11.026;2022-12-07T06:42:03;2.10;99.90
29281;DHT22;25048;49.590;11.026;2022-12-07T06:44:30;2.10;99.90
29281;DHT22;25048;49.590;11.026;2022-12-07T06:46:58;2.10;99.90
29281;DHT22;25048;49.590;11.026;2022-12-07T06:49:26;2.00;99.90
29281;DHT22;25048;49.590;11.026;2022-12-07T06:51:53;2.00;99.90
29281;DHT22;25048;49.590;11.026;2022-12-07T06:54:21;2.00;99.90
29281;DHT22;25048;49.590;11.026;2022-12-07T06:56:48;2.00;99.90
29281;DHT22;25048;49.590;11.026;2022-12-07T06:59:16;2.00;99.90
29281;DHT22;25048;49.590;11.026;2022-12-07T07:01:43;2.00;99.90
29281;DHT22;25048;49.590;11.026;2022-12-07T07:04:11;2.10;99.90
29281;DHT22;25048;49.590;11.026;2022-12-07T07:06:39;2.10;99.90
29281;DHT22;25048;49.590;11.026;2022-12-07T07:09:06;2.10;99.90
29281;DHT22;25048;49.590;11.026;2022-12-07T07:11:35;2.10;99.90
29281;DHT22;25048;49.590;11.026;2022-12-07T07:14:03;2.10;99.90
29281;DHT22;25048;49.590;11.026;2022-12-07T07:16:30;2.10;99.90
29281;DHT22;25048;49.590;11.026;2022-12-07T07:18:58;2.20;99.90
29281;DHT22;25048;49.590;11.026;2022-12-07T07:21:25;2.30;99.90
29281;DHT22;25048;49.590;11.026;2022-12-07T07:23:53;2.40;99.90
29281;DHT22;25048;49.590;11.026;2022-12-07T07:26:20;2.40;99.90
29281;DHT22;25048;49.590;11.026;2022-12-07T07:28:48;2.50;99.90
29281;DHT22;25048;49.590;11.026;2022-12-07T07:31:15;2.60;99.90
29281;DHT22;25048;49.590;11.026;2022-12-07T07:33:44;2.60;99.90
29281;DHT22;25048;49.590;11.026;2022-12-07T07:36:12;2.60;99.90
29281;DHT22;25048;49.590;11.026;2022-12-07T07:38:39;2.60;99.90
29281;DHT22;25048;49.590;11.026;2022-12-07T07:41:07;2.60;99.90
29281;DHT22;25048;49.590;11.026;2022-12-07T07:43:34;2.70;99.90
29281;DHT22;25048;49.590;11.026;2022-12-07T07:46:02;2.80;99.90
29281;DHT22;25048;49.590;11.026;2022-12-07T07:48:29;2.80;99.90
29281;DHT22;25048;49.590;11.026;2022-12-07T07:50:57;2.80;99.90
29281;DHT22;25048;49.590;11.026;2022-12-07T07:53:24;2.90;99.90
29281;DHT22;25048;49.590;11.026;2022-12-07T07:55:53;3.00;99.90
29281;DHT22;25048;49.590;11.026;2022-12-07T07:58:21;3.00;99.90
29281;DHT22;25048;49.590;11.026;2022-12-07T08:00:48;3.10;99.90
29281;DHT22;25048;49.590;11.026;2022-12-07T08:03:16;3.10;99.90
29281;DHT22;25048;49.590;11.026;2022-12-07T08:05:43;3.10;99.90
29281;DHT22;25048;49.590;11.026;2022-12-07T08:08:11;3.10;99.90
29281;DHT22;25048;49.590;11.026;2022-12-07T08:10:39;3.10;99.90
29281;DHT22;25048;49.590;11.026;2022-12-07T08:13:06;3.10;99.90
29281;DHT22;25048;49.590;11.026;2022-12-07T08:15:44;3.20;99.90
29281;DHT22;25048;49.590;11.026;2022-12-07T08:18:13;3.10;99.90
29281;DHT22;25048;49.590;11.026;2022-12-07T08:20:41;3.10;99.90
29281;DHT22;25048;49.590;11.026;2022-12-07T08:23:10;3.10;99.90
29281;DHT22;25048;49.590;11.026;2022-12-07T08:25:38;3.10;99.90
29281;DHT22;25048;49.590;11.026;2022-12-07T08:28:06;3.10;99.90
29281;DHT22;25048;49.590;11.026;2022-12-07T08:30:33;3.20;99.90
29281;DHT22;25048;49.590;11.026;2022-12-07T08:33:01;3.20;99.90
29281;DHT22;25048;49.590;11.026;2022-12-07T08:35:28;3.30;99.90
29281;DHT22;25048;49.590;11.026;2022-12-07T08:37:56;3.40;99.90
29281;DHT22;25048;49.590;11.026;2022-12-07T08:40:26;3.40;99.90
29281;DHT22;25048;49.590;11.026;2022-12-07T08:42:54;3.40;99.90
29281;DHT22;25048;49.590;11.026;2022-12-07T08:45:22;3.50;99.90
29281;DHT22;25048;49.590;11.026;2022-12-07T08:47:57;3.40;99.90
29281;DHT22;25048;49.590;11.026;2022-12-07T08:50:21;3.40;99.90
29281;DHT22;25048;49.590;11.026;2022-12-07T08:52:53;3.40;99.90
29281;DHT22;25048;49.590;11.026;2022-12-07T08:55:22;3.50;99.90
29281;DHT22;25048;49.590;11.026;2022-12-07T08:57:50;3.50;99.90
29281;DHT22;25048;49.590;11.026;2022-12-07T09:00:18;3.50;99.90
29281;DHT22;25048;49.590;11.026;2022-12-07T09:02:46;3.50;99.90
29281;DHT22;25048;49.590;11.026;2022-12-07T09:05:13;3.50;99.90
29281;DHT22;25048;49.590;11.026;2022-12-07T09:07:45;3.50;99.90
29281;DHT22;25048;49.590;11.026;2022-12-07T09:10:13;3.50;99.90
29281;DHT22;25048;49.590;11.026;2022-12-07T09:12:41;3.50;99.90
29281;DHT22;25048;49.590;11.026;2022-12-07T09:15:08;3.60;99.90
29281;DHT22;25048;49.590;11.026;2022-12-07T09:17:36;3.60;99.90
29281;DHT22;25048;49.590;11.026;2022-12-07T09:20:06;3.60;99.90
29281;DHT22;25048;49.590;11.026;2022-12-07T09:22:33;3.60;99.90
29281;DHT22;25048;49.590;11.026;2022-12-07T09:25:01;3.60;99.90
29281;DHT22;25048;49.590;11.026;2022-12-07T09:27:29;3.60;99.90
29281;DHT22;25048;49.590;11.026;2022-12-07T09:29:57;3.60;99.90
29281;DHT22;25048;49.590;11.026;2022-12-07T09:32:24;3.60;99.90
29281;DHT22;25048;49.590;11.026;2022-12-07T09:34:52;3.60;99.90
29281;DHT22;25048;49.590;11.026;2022-12-07T09:37:20;3.60;99.90
29281;DHT22;25048;49.590;11.026;2022-12-07T09:39:47;3.70;99.90
29281;DHT22;25048;49.590;11.026;2022-12-07T09:42:27;3.70;99.90
29281;DHT22;25048;49.590;11.026;2022-12-07T09:44:54;3.70;99.90
29281;DHT22;25048;49.590;11.026;2022-12-07T09:47:22;3.70;99.90
29281;DHT22;25048;49.590;11.026;2022-12-07T09:49:50;3.70;99.90
29281;DHT22;25048;49.590;11.026;2022-12-07T09:52:26;3.70;99.90
29281;DHT22;25048;49.590;11.026;2022-12-07T09:54:52;3.70;99.90
29281;DHT22;25048;49.590;11.026;2022-12-07T09:57:32;3.70;99.90
29281;DHT22;25048;49.590;11.026;2022-12-07T09:59:59;3.70;99.90
29281;DHT22;25048;49.590;11.026;2022-12-07T10:02:38;3.70;99.90
29281;DHT22;25048;49.590;11.026;2022-12-07T10:05:09;3.70;99.90
29281;DHT22;25048;49.590;11.026;2022-12-07T10:07:36;3.70;99.90
29281;DHT22;25048;49.590;11.026;2022-12-07T10:10:06;3.80;99.90
29281;DHT22;25048;49.590;11.026;2022-12-07T10:15:22;3.90;99.90
29281;DHT22;25048;49.590;11.026;2022-12-07T10:17:51;3.90;99.90
29281;DHT22;25048;49.590;11.026;2022-12-07T10:20:22;3.90;99.90
29281;DHT22;25048;49.590;11.026;2022-12-07T10:25:35;3.90;99.90
29281;DHT22;25048;49.590;11.026;2022-12-07T10:30:51;4.00;99.90
29281;DHT22;25048;49.590;11.026;2022-12-07T10:33:37;4.00;99.90
29281;DHT22;25048;49.590;11.026;2022-12-07T10:36:20;4.00;99.90
29281;DHT22;25048;49.590;11.026;2022-12-07T10:38:58;4.00;99.90
29281;DHT22;25048;49.590;11.026;2022-12-07T10:41:19;4.00;99.90
29281;DHT22;25048;49.590;11.026;2022-12-07T10:43:52;3.90;99.90
29281;DHT22;25048;49.590;11.026;2022-12-07T10:52:12;4.00;99.90
29281;DHT22;25048;49.590;11.026;2022-12-07T10:54:45;3.90;99.90
29281;DHT22;25048;49.590;11.026;2022-12-07T11:00:04;4.00;99.90
29281;DHT22;25048;49.590;11.026;2022-12-07T11:02:51;4.00;99.90
29281;DHT22;25048;49.590;11.026;2022-12-07T11:05:27;4.00;99.90
29281;DHT22;25048;49.590;11.026;2022-12-07T11:08:13;4.00;99.90
29281;DHT22;25048;49.590;11.026;2022-12-07T11:16:22;4.20;99.90
29281;DHT22;25048;49.590;11.026;2022-12-07T11:18:59;4.30;99.90
29281;DHT22;25048;49.590;11.026;2022-12-07T11:24:17;4.30;99.90
29281;DHT22;25048;49.590;11.026;2022-12-07T11:26:54;4.30;99.90
29281;DHT22;25048;49.590;11.026;2022-12-07T11:32:34;4.30;99.90
29281;DHT22;25048;49.590;11.026;2022-12-07T11:35:08;4.30;99.90
29281;DHT22;25048;49.590;11.026;2022-12-07T11:37:36;4.30;99.90
29281;DHT22;25048;49.590;11.026;2022-12-07T11:40:17;4.30;99.90
29281;DHT22;25048;49.590;11.026;2022-12-07T11:42:59;4.30;99.90
29281;DHT22;25048;49.590;11.026;2022-12-07T11:45:31;4.30;99.90
29281;DHT22;25048;49.590;11.026;2022-12-07T11:48:02;4.30;99.90
29281;DHT22;25048;49.590;11.026;2022-12-07T11:53:46;4.20;99.90
29281;DHT22;25048;49.590;11.026;2022-12-07T11:56:17;4.30;99.90
29281;DHT22;25048;49.590;11.026;2022-12-07T11:59:10;4.30;99.90
29281;DHT22;25048;49.590;11.026;2022-12-07T12:01:59;4.30;99.90
29281;DHT22;25048;49.590;11.026;2022-12-07T12:04:50;4.30;99.90
29281;DHT22;25048;49.590;11.026;2022-12-07T12:07:20;4.30;99.90
29281;DHT22;25048;49.590;11.026;2022-12-07T12:09:55;4.30;99.90
29281;DHT22;25048;49.590;11.026;2022-12-07T12:15:27;4.30;99.90
29281;DHT22;25048;49.590;11.026;2022-12-07T12:18:09;4.30;99.90
29281;DHT22;25048;49.590;11.026;2022-12-07T12:20:46;4.30;99.90
29281;DHT22;25048;49.590;11.026;2022-12-07T12:23:22;4.30;99.90
29281;DHT22;25048;49.590;11.026;2022-12-07T12:26:01;4.30;99.90
29281;DHT22;25048;49.590;11.026;2022-12-07T12:28:41;4.30;99.90
29281;DHT22;25048;49.590;11.026;2022-12-07T12:31:33;4.30;99.90
29281;DHT22;25048;49.590;11.026;2022-12-07T12:33:50;4.30;99.90
29281;DHT22;25048;49.590;11.026;2022-12-07T12:46:56;4.20;99.90
29281;DHT22;25048;49.590;11.026;2022-12-07T12:55:11;4.10;99.90
29281;DHT22;25048;49.590;11.026;2022-12-07T12:57:32;4.20;99.90
29281;DHT22;25048;49.590;11.026;2022-12-07T13:00:01;4.20;99.90
29281;DHT22;25048;49.590;11.026;2022-12-07T13:02:38;4.20;99.90
29281;DHT22;25048;49.590;11.026;2022-12-07T13:10:33;4.20;99.90
29281;DHT22;25048;49.590;11.026;2022-12-07T13:15:46;4.20;99.90
29281;DHT22;25048;49.590;11.026;2022-12-07T13:18:34;4.30;99.90
29281;DHT22;25048;49.590;11.026;2022-12-07T13:37:02;4.10;99.90
29281;DHT22;25048;49.590;11.026;2022-12-07T13:39:32;4.20;99.90
29281;DHT22;25048;49.590;11.026;2022-12-07T13:42:07;4.20;99.90
29281;DHT22;25048;49.590;11.026;2022-12-07T13:44:33;4.30;99.90
29281;DHT22;25048;49.590;11.026;2022-12-07T13:47:13;4.40;99.90
29281;DHT22;25048;49.590;11.026;2022-12-07T13:49:52;4.40;99.90
29281;DHT22;25048;49.590;11.026;2022-12-07T13:54:59;4.30;99.90
29281;DHT22;25048;49.590;11.026;2022-12-07T13:57:29;4.20;99.90
29281;DHT22;25048;49.590;11.026;2022-12-07T13:59:58;4.20;99.90
29281;DHT22;25048;49.590;11.026;2022-12-07T14:02:31;4.20;99.90
29281;DHT22;25048;49.590;11.026;2022-12-07T14:05:23;4.20;99.90
29281;DHT22;25048;49.590;11.026;2022-12-07T14:08:02;4.10;99.90
29281;DHT22;25048;49.590;11.026;2022-12-07T14:13:42;4.10;99.90
29281;DHT22;25048;49.590;11.026;2022-12-07T14:16:25;4.10;99.90
29281;DHT22;25048;49.590;11.026;2022-12-07T14:18:55;4.10;99.90
29281;DHT22;25048;49.590;11.026;2022-12-07T14:21:26;4.20;99.90
29281;DHT22;25048;49.590;11.026;2022-12-07T14:24:17;4.20;99.90
29281;DHT22;25048;49.590;11.026;2022-12-07T14:26:47;4.10;99.90
29281;DHT22;25048;49.590;11.026;2022-12-07T14:29:32;4.10;99.90
29281;DHT22;25048;49.590;11.026;2022-12-07T14:32:17;4.10;99.90
29281;DHT22;25048;49.590;11.026;2022-12-07T14:34:54;4.00;99.90
29281;DHT22;25048;49.590;11.026;2022-12-07T14:37:22;4.10;99.90
29281;DHT22;25048;49.590;11.026;2022-12-07T14:39:49;4.10;99.90
29281;DHT22;25048;49.590;11.026;2022-12-07T14:42:17;4.00;99.90
29281;DHT22;25048;49.590;11.026;2022-12-07T14:44:44;4.10;99.90
29281;DHT22;25048;49.590;11.026;2022-12-07T14:47:12;4.10;99.90
29281;DHT22;25048;49.590;11.026;2022-12-07T14:49:39;4.00;99.90
29281;DHT22;25048;49.590;11.026;2022-12-07T14:52:19;4.00;99.90
29281;DHT22;25048;49.590;11.026;2022-12-07T14:54:44;3.90;99.90
29281;DHT22;25048;49.590;11.026;2022-12-07T14:57:11;3.90;99.90
29281;DHT22;25048;49.590;11.026;2022-12-07T14:59:39;3.80;99.90
29281;DHT22;25048;49.590;11.026;2022-12-07T15:02:09;3.60;99.90
29281;DHT22;25048;49.590;11.026;2022-12-07T15:04:36;3.50;99.90
29281;DHT22;25048;49.590;11.026;2022-12-07T15:07:06;3.50;99.90
29281;DHT22;25048;49.590;11.026;2022-12-07T15:09:34;3.50;99.90
29281;DHT22;25048;49.590;11.026;2022-12-07T15:12:01;3.50;99.90
29281;DHT22;25048;49.590;11.026;2022-12-07T15:14:30;3.50;99.90
29281;DHT22;25048;49.590;11.026;2022-12-07T15:16:57;3.40;99.90
29281;DHT22;25048;49.590;11.026;2022-12-07T15:19:26;3.40;99.90
29281;DHT22;25048;49.590;11.026;2022-12-07T15:21:54;3.40;99.90
29281;DHT22;25048;49.590;11.026;2022-12-07T15:24:21;3.30;99.90
29281;DHT22;25048;49.590;11.026;2022-12-07T15:26:50;3.20;99.90
29281;DHT22;25048;49.590;11.026;2022-12-07T15:29:18;3.20;99.90
29281;DHT22;25048;49.590;11.026;2022-12-07T15:31:47;3.20;99.90
29281;DHT22;25048;49.590;11.026;2022-12-07T15:34:15;3.20;99.90
29281;DHT22;25048;49.590;11.026;2022-12-07T15:36:42;3.20;99.90
29281;DHT22;25048;49.590;11.026;2022-12-07T15:39:10;3.20;99.90
29281;DHT22;25048;49.590;11.026;2022-12-07T15:41:38;3.00;99.90
29281;DHT22;25048;49.590;11.026;2022-12-07T15:44:05;2.90;99.90
29281;DHT22;25048;49.590;11.026;2022-12-07T15:46:51;2.90;99.90
29281;DHT22;25048;49.590;11.026;2022-12-07T15:49:19;2.80;99.90
29281;DHT22;25048;49.590;11.026;2022-12-07T15:51:46;2.80;99.90
29281;DHT22;25048;49.590;11.026;2022-12-07T15:54:18;2.80;99.90
29281;DHT22;25048;49.590;11.026;2022-12-07T15:56:44;2.80;99.90
29281;DHT22;25048;49.590;11.026;2022-12-07T15:59:12;2.80;99.90
29281;DHT22;25048;49.590;11.026;2022-12-07T16:01:40;2.80;99.90
29281;DHT22;25048;49.590;11.026;2022-12-07T16:04:07;2.80;99.90
29281;DHT22;25048;49.590;11.026;2022-12-07T16:06:35;2.80;99.90
29281;DHT22;25048;49.590;11.026;2022-12-07T16:09:03;2.80;99.90
29281;DHT22;25048;49.590;11.026;2022-12-07T16:11:31;2.80;99.90
29281;DHT22;25048;49.590;11.026;2022-12-07T16:13:59;2.80;99.90
29281;DHT22;25048;49.590;11.026;2022-12-07T16:16:27;2.70;99.90
29281;DHT22;25048;49.590;11.026;2022-12-07T16:18:55;2.70;99.90
29281;DHT22;25048;49.590;11.026;2022-12-07T16:21:23;2.60;99.90
29281;DHT22;25048;49.590;11.026;2022-12-07T16:23:50;2.60;99.90
29281;DHT22;25048;49.590;11.026;2022-12-07T16:26:20;2.60;99.90
29281;DHT22;25048;49.590;11.026;2022-12-07T16:28:52;2.60;99.90
29281;DHT22;25048;49.590;11.026;2022-12-07T16:31:22;2.60;99.90
29281;DHT22;25048;49.590;11.026;2022-12-07T16:33:52;2.60;99.90
29281;DHT22;25048;49.590;11.026;2022-12-07T16:36:20;2.60;99.90
29281;DHT22;25048;49.590;11.026;2022-12-07T16:38:48;2.60;99.90
29281;DHT22;25048;49.590;11.026;2022-12-07T16:41:16;2.60;99.90
29281;DHT22;25048;49.590;11.026;2022-12-07T16:43:44;2.50;99.90
29281;DHT22;25048;49.590;11.026;2022-12-07T16:46:11;2.50;99.90
29281;DHT22;25048;49.590;11.026;2022-12-07T16:48:40;2.60;99.90
29281;DHT22;25048;49.590;11.026;2022-12-07T16:51:10;2.60;99.90
29281;DHT22;25048;49.590;11.026;2022-12-07T16:53:39;2.60;99.90
29281;DHT22;25048;49.590;11.026;2022-12-07T16:56:15;2.60;99.90
29281;DHT22;25048;49.590;11.026;2022-12-07T16:58:44;2.70;99.90
29281;DHT22;25048;49.590;11.026;2022-12-07T17:01:16;2.70;99.90
29281;DHT22;25048;49.590;11.026;2022-12-07T17:03:45;2.90;99.90
29281;DHT22;25048;49.590;11.026;2022-12-07T17:06:14;2.90;99.90
29281;DHT22;25048;49.590;11.026;2022-12-07T17:08:42;2.90;99.90
29281;DHT22;25048;49.590;11.026;2022-12-07T17:11:16;2.90;99.90
29281;DHT22;25048;49.590;11.026;2022-12-07T17:13:44;2.90;99.90
29281;DHT22;25048;49.590;11.026;2022-12-07T17:16:30;3.00;99.90
29281;DHT22;25048;49.590;11.026;2022-12-07T17:18:57;3.00;99.90
29281;DHT22;25048;49.590;11.026;2022-12-07T17:21:25;2.90;99.90
29281;DHT22;25048;49.590;11.026;2022-12-07T17:23:53;2.80;99.90
29281;DHT22;25048;49.590;11.026;2022-12-07T17:26:22;2.90;99.90
29281;DHT22;25048;49.590;11.026;2022-12-07T17:28:50;2.70;99.90
29281;DHT22;25048;49.590;11.026;2022-12-07T17:31:19;2.70;99.90
29281;DHT22;25048;49.590;11.026;2022-12-07T17:33:48;2.60;99.90
29281;DHT22;25048;49.590;11.026;2022-12-07T17:36:18;2.60;99.90
29281;DHT22;25048;49.590;11.026;2022-12-07T17:38:46;2.50;99.90